Gurney, Wisconsin
Current Conditions -  °F | °C
As of 4:15 AM on Tuesday 27 Jan 2015 (Local Time) from KIWD Reporting Station
Overcast Overcast  
Wind Chill: 19°   Ceiling: 2800
Heat Index: 19°   Visibility: 10mi
Dew Point: 19°   Wind: 0mph
Humidity: 100%   Direction: NA
Pressure: 30.02"   Gusts: NA
Location:  46.4902°N, 90.4521°W
Report Text: KIWD 271015Z AUTO 00000KT 10SM OVC028 M07/M07 A3002 RMK AO1
Loading
Personal Weather Stations






























Interactive Weather Map New forecast layout! Learn more

10-Day Weather Forecast

Advertisements
Track Severe Weather on mobile